Time;durP1;ratioP1;P1;durP2;ratioP2;P2;SDS_P1;SDS_P2;PMS_P1;PMS_P2;Temp;Humidity;BMP_temperature;BMP_pressure;BME280_temperature;BME280_humidity;BME280_pressure;Samples;Min_cycle;Max_cycle;Signal;HPM_P1;HPM_P2
2021/08/13 00:00:17;;;;;;;13.08;6.80;;;;;;;12.65;100.00;99896.84;1485068;96;21064;-64
2021/08/13 00:02:43;;;;;;;14.58;6.80;;;;;;;12.65;100.00;99902.22;1485355;95;20971;-64
2021/08/13 00:05:10;;;;;;;14.95;6.15;;;;;;;12.67;100.00;99894.70;1467210;95;21251;-64
2021/08/13 00:07:37;;;;;;;13.70;6.60;;;;;;;12.63;100.00;99897.08;1485199;95;21093;-64
2021/08/13 00:10:06;;;;;;;10.35;6.22;;;;;;;12.58;100.00;99897.59;1484894;95;20895;-64
2021/08/13 00:12:34;;;;;;;9.33;6.65;;;;;;;12.58;100.00;99898.39;1485131;95;21049;-64
2021/08/13 00:15:02;;;;;;;7.30;5.83;;;;;;;12.62;100.00;99900.86;1485357;96;21040;-64
2021/08/13 00:17:30;;;;;;;10.68;7.12;;;;;;;12.65;100.00;99907.61;1484937;96;20998;-64
2021/08/13 00:19:56;;;;;;;10.80;6.17;;;;;;;12.61;100.00;99911.88;1526132;91;20938;-64
2021/08/13 00:22:25;;;;;;;11.22;6.22;;;;;;;12.65;100.00;99913.80;1564159;90;20910;-63
2021/08/13 00:24:52;;;;;;;12.33;6.97;;;;;;;12.60;100.00;99913.77;1629876;87;20977;-64
2021/08/13 00:27:19;;;;;;;15.83;6.97;;;;;;;12.54;100.00;99915.32;1641927;87;21020;-64
2021/08/13 00:29:45;;;;;;;10.65;6.70;;;;;;;12.50;100.00;99915.04;1641638;87;21089;-63
2021/08/13 00:32:14;;;;;;;10.35;7.30;;;;;;;12.53;100.00;99919.90;1641557;85;21412;-63
2021/08/13 00:34:42;;;;;;;10.20;6.70;;;;;;;12.53;100.00;99918.55;1641745;87;21006;-63
2021/08/13 00:37:09;;;;;;;13.65;6.35;;;;;;;12.50;100.00;99925.00;1641814;85;21127;-62
2021/08/13 00:39:36;;;;;;;10.30;6.28;;;;;;;12.51;100.00;99916.65;1641552;86;20968;-63
2021/08/13 00:42:03;;;;;;;14.83;6.95;;;;;;;12.52;100.00;99914.77;1641779;85;21127;-64
2021/08/13 00:44:32;;;;;;;7.00;5.90;;;;;;;12.55;100.00;99914.27;1641588;87;20861;-63
2021/08/13 00:47:02;;;;;;;9.25;6.25;;;;;;;12.52;100.00;99914.77;1641462;85;21518;-64
2021/08/13 00:49:30;;;;;;;13.68;6.80;;;;;;;12.50;100.00;99923.11;1640565;87;20996;-63
2021/08/13 00:52:00;;;;;;;9.00;6.33;;;;;;;12.47;100.00;99916.91;1640138;87;21423;-63
2021/08/13 00:54:27;;;;;;;11.73;6.15;;;;;;;12.48;100.00;99916.36;1641727;87;21135;-63
2021/08/13 00:56:53;;;;;;;13.48;7.00;;;;;;;12.51;100.00;99915.84;1641467;85;20930;-63
2021/08/13 00:59:22;;;;;;;10.78;6.70;;;;;;;12.48;100.00;99918.52;1621446;86;20936;-63
2021/08/13 01:01:51;;;;;;;;;;;;;;;12.43;100.00;99925.21;1622352;87;20908;-62
2021/08/13 01:04:20;;;;;;;13.38;6.05;;;;;;;12.37;100.00;99923.02;1641518;87;20450;-62
2021/08/13 01:06:48;;;;;;;9.08;6.70;;;;;;;12.31;100.00;99922.69;1641658;87;21596;-63
2021/08/13 01:09:15;;;;;;;14.03;6.75;;;;;;;12.24;100.00;99923.42;1641435;85;21040;-63
2021/08/13 01:11:58;;;;;;;15.50;6.62;;;;;;;12.25;100.00;99925.06;1641854;87;20989;-63
2021/08/13 01:15:08;;;;;;;13.68;6.78;;;;;;;12.22;100.00;99917.48;1641455;87;21019;-63
2021/08/13 01:17:48;;;;;;;9.30;6.55;;;;;;;12.21;100.00;99919.91;1641612;86;20956;-62
2021/08/13 01:20:43;;;;;;;12.93;6.35;;;;;;;12.16;100.00;99917.98;1641450;85;20949;-63
2021/08/13 01:23:20;;;;;;;13.18;6.47;;;;;;;12.13;100.00;99921.72;1641522;85;21410;-63
2021/08/13 01:25:52;;;;;;;9.53;6.37;;;;;;;12.06;100.00;99920.58;1641512;87;21458;-62
2021/08/13 01:28:54;;;;;;;11.22;6.42;;;;;;;12.05;100.00;99914.90;1641659;85;20944;-62
2021/08/13 01:31:25;;;;;;;14.38;6.80;;;;;;;12.03;100.00;99924.29;1641239;86;20889;-63
2021/08/13 01:34:01;;;;;;;11.80;7.30;;;;;;;11.98;100.00;99919.70;1641557;85;20934;-62
2021/08/13 01:36:29;;;;;;;12.33;7.05;;;;;;;12.00;100.00;99921.58;1641263;86;21000;-63
2021/08/13 01:39:01;;;;;;;10.82;6.22;;;;;;;11.99;100.00;99928.03;1563660;89;21125;-63
2021/08/13 01:41:32;;;;;;;9.70;6.70;;;;;;;11.98;100.00;99929.12;1641246;87;21069;-63
2021/08/13 01:43:59;;;;;;;10.50;6.78;;;;;;;11.95;100.00;99929.06;1641452;87;20913;-63
2021/08/13 01:46:26;;;;;;;16.45;6.83;;;;;;;11.97;100.00;99933.66;1641638;85;21503;-63
2021/08/13 01:48:59;;;;;;;12.55;7.70;;;;;;;11.96;100.00;99934.73;1564483;90;20974;-63
2021/08/13 01:51:30;;;;;;;12.23;6.90;;;;;;;11.98;100.00;99933.16;1641454;87;21060;-63
2021/08/13 01:53:59;;;;;;;12.20;7.25;;;;;;;12.00;100.00;99937.21;1620234;87;21016;-63
2021/08/13 01:56:27;;;;;;;9.98;7.12;;;;;;;11.98;100.00;99933.95;1641689;87;21510;-64
2021/08/13 01:58:56;;;;;;;10.15;6.45;;;;;;;11.96;100.00;99942.81;1641560;85;21490;-63
2021/08/13 02:01:28;;;;;;;12.33;6.58;;;;;;;11.92;100.00;99938.19;1641627;87;20954;-63
2021/08/13 02:03:57;;;;;;;12.93;6.62;;;;;;;11.89;100.00;99946.77;1620442;87;21011;-62
2021/08/13 02:06:24;;;;;;;21.80;6.85;;;;;;;11.83;100.00;99947.19;1641380;87;20884;-62
2021/08/13 02:08:54;;;;;;;14.00;7.25;;;;;;;11.83;100.00;99945.04;1641443;86;20989;-62
2021/08/13 02:11:24;;;;;;;14.20;6.53;;;;;;;11.85;100.00;99951.79;1584386;90;20888;-62
2021/08/13 02:13:55;;;;;;;11.55;7.35;;;;;;;11.87;100.00;99951.04;1620013;87;20882;-62
2021/08/13 02:16:26;;;;;;;14.20;6.95;;;;;;;11.85;100.00;99958.52;1618564;88;21031;-62
2021/08/13 02:19:14;;;;;;;9.63;6.25;;;;;;;11.85;100.00;99964.44;1618381;87;20971;-62
2021/08/13 02:21:46;;;;;;;14.90;7.05;;;;;;;11.83;100.00;99961.17;1618459;87;20891;-62
2021/08/13 02:24:12;;;;;;;9.98;6.97;;;;;;;11.81;100.00;99962.80;1618660;88;21106;-62
2021/08/13 02:26:40;;;;;;;12.95;6.90;;;;;;;11.78;100.00;99965.96;1618500;87;20958;-62
2021/08/13 02:29:09;;;;;;;14.47;7.08;;;;;;;11.72;100.00;99962.95;1618794;88;20942;-63
2021/08/13 02:31:37;;;;;;;14.45;6.90;;;;;;;11.70;100.00;99966.41;1618338;87;28212;-63
2021/08/13 02:34:05;;;;;;;12.15;6.20;;;;;;;11.63;100.00;99970.63;1618545;88;21409;-63
2021/08/13 02:36:54;;;;;;;15.32;7.53;;;;;;;11.57;100.00;99976.48;1577393;90;21157;-63
2021/08/13 02:39:53;;;;;;;12.50;7.80;;;;;;;11.52;100.00;99981.80;1627171;87;22406;-63
2021/08/13 02:42:30;;;;;;;9.18;7.15;;;;;;;11.52;100.00;99983.68;1627135;87;25171;-63
2021/08/13 02:44:59;;;;;;;13.37;7.13;;;;;;;11.51;100.00;99982.03;1603253;88;21414;-63
2021/08/13 02:47:27;;;;;;;12.30;7.60;;;;;;;11.48;100.00;99988.72;1618485;87;21045;-64
2021/08/13 02:49:58;;;;;;;11.43;7.28;;;;;;;11.47;100.00;99989.80;1618487;88;21310;-62
2021/08/13 02:52:29;;;;;;;12.95;7.22;;;;;;;11.46;100.00;99988.16;1617998;87;21416;-63
2021/08/13 02:55:03;;;;;;;10.85;7.08;;;;;;;11.43;100.00;99986.51;1618540;88;20961;-63
2021/08/13 02:57:32;;;;;;;12.88;7.83;;;;;;;11.42;100.00;99985.70;1618356;88;20973;-63
2021/08/13 03:00:06;;;;;;;13.85;6.92;;;;;;;11.38;100.00;99986.72;1618291;87;21022;-63
2021/08/13 03:02:33;;;;;;;10.30;7.03;;;;;;;11.35;100.00;99991.78;1618250;88;21143;-62
2021/08/13 03:05:01;;;;;;;10.32;8.15;;;;;;;11.34;100.00;99995.52;1618385;87;20982;-63
2021/08/13 03:07:28;;;;;;;12.88;7.37;;;;;;;11.36;100.00;100002.80;1618387;88;21440;-62
2021/08/13 03:09:55;;;;;;;13.10;7.85;;;;;;;11.36;100.00;99997.43;1617717;87;20969;-63
2021/08/13 03:12:24;;;;;;;41.40;7.92;;;;;;;11.37;100.00;100006.60;1575073;90;20896;-64
2021/08/13 03:14:51;;;;;;;12.15;7.65;;;;;;;11.40;100.00;100000.45;1568209;90;21770;-64
2021/08/13 03:17:18;;;;;;;10.13;7.60;;;;;;;11.49;100.00;100004.31;1568419;91;21013;-62
2021/08/13 03:19:46;;;;;;;10.55;7.12;;;;;;;11.56;100.00;99994.20;1568430;90;26313;-63
2021/08/13 03:22:13;;;;;;;11.70;8.30;;;;;;;11.65;100.00;100002.66;1568503;90;20910;-63
2021/08/13 03:24:41;;;;;;;13.58;8.08;;;;;;;11.72;100.00;100001.94;1568515;91;20895;-63
2021/08/13 03:27:08;;;;;;;16.25;7.72;;;;;;;11.80;100.00;100011.71;1568193;90;21174;-63
2021/08/13 03:29:35;;;;;;;14.75;7.25;;;;;;;11.87;100.00;100014.78;1548206;91;20990;-63
2021/08/13 03:32:04;;;;;;;20.82;7.95;;;;;;;11.91;100.00;100001.94;1568449;90;20882;-63
2021/08/13 03:34:31;;;;;;;;;;;;;;;11.96;100.00;100011.41;1570783;91;21053;-64
2021/08/13 03:36:58;;;;;;;12.30;8.55;;;;;;;12.02;100.00;100012.27;1605374;88;20131;-63
2021/08/13 03:39:24;;;;;;;13.58;8.33;;;;;;;12.11;100.00;100012.11;1618497;88;21114;-63
2021/08/13 03:41:51;;;;;;;13.93;8.38;;;;;;;12.23;100.00;100018.70;1605458;88;20952;-62
2021/08/13 03:44:20;;;;;;;12.07;7.58;;;;;;;12.34;100.00;100015.56;1618351;88;21426;-63
2021/08/13 03:46:48;;;;;;;12.78;6.72;;;;;;;12.45;100.00;100022.69;1618342;88;21060;-63
2021/08/13 03:49:15;;;;;;;45.73;9.08;;;;;;;12.51;100.00;100017.62;1618423;88;20921;-62
2021/08/13 03:51:43;;;;;;;18.32;8.05;;;;;;;12.59;100.00;100018.52;1618599;88;20887;-64
2021/08/13 03:54:10;;;;;;;14.13;7.37;;;;;;;12.72;100.00;100017.82;1618293;88;21441;-65
2021/08/13 03:56:37;;;;;;;14.50;7.10;;;;;;;12.83;100.00;100027.59;1618291;88;20932;-63
2021/08/13 03:59:04;;;;;;;14.05;6.15;;;;;;;12.96;100.00;100027.17;1618295;88;20897;-64
2021/08/13 04:01:32;;;;;;;;;;;;;;;13.09;100.00;100028.61;1620801;88;20964;-63
2021/08/13 04:04:00;;;;;;;20.40;7.58;;;;;;;13.19;100.00;100033.27;1618501;88;21053;-63
2021/08/13 04:06:27;;;;;;;24.23;7.87;;;;;;;13.27;100.00;100033.60;1618534;87;20999;-63
2021/08/13 04:08:56;;;;;;;10.23;6.92;;;;;;;13.39;100.00;100033.95;1618533;88;20893;-64
2021/08/13 04:11:23;;;;;;;9.58;5.78;;;;;;;13.51;100.00;100039.41;1618424;88;21352;-64
2021/08/13 04:13:51;;;;;;;8.90;6.12;;;;;;;13.56;100.00;100043.23;1618619;88;21405;-64
2021/08/13 04:16:21;;;;;;;12.85;5.87;;;;;;;13.68;100.00;100040.59;1618383;88;21031;-63
2021/08/13 04:18:49;;;;;;;;;;;;;;;13.82;100.00;100043.63;1620677;88;21162;-64
2021/08/13 04:21:15;;;;;;;33.95;7.05;;;;;;;13.97;100.00;100041.53;1618653;88;20113;-64
2021/08/13 04:23:42;;;;;;;14.85;7.00;;;;;;;14.14;100.00;100046.17;1618378;88;20913;-63
2021/08/13 04:26:09;;;;;;;13.32;6.17;;;;;;;14.33;100.00;100042.97;1618791;88;20921;-64
2021/08/13 04:28:35;;;;;;;13.88;5.70;;;;;;;14.49;100.00;100047.88;1618454;88;21146;-63
2021/08/13 04:31:02;;;;;;;10.00;6.70;;;;;;;14.60;100.00;100046.03;1618935;88;20929;-63
2021/08/13 04:33:29;;;;;;;18.90;6.45;;;;;;;14.77;100.00;100054.69;1618576;88;20937;-65
2021/08/13 04:35:58;;;;;;;45.67;7.92;;;;;;;14.91;100.00;100059.84;1618358;88;21493;-63
2021/08/13 04:38:25;;;;;;;21.35;6.60;;;;;;;15.06;100.00;100060.92;1618418;88;20975;-63
2021/08/13 04:40:52;;;;;;;13.88;6.55;;;;;;;15.25;100.00;100070.66;1618478;88;21130;-63
2021/08/13 04:43:19;;;;;;;18.30;6.70;;;;;;;15.49;100.00;100067.64;1618301;88;21056;-64
2021/08/13 04:45:45;;;;;;;14.13;6.37;;;;;;;15.65;100.00;100074.65;1618715;88;20888;-64
2021/08/13 04:48:12;;;;;;;11.35;5.60;;;;;;;15.75;100.00;100073.01;1618443;88;20941;-64
2021/08/13 04:50:39;;;;;;;11.30;5.75;;;;;;;15.84;100.00;100078.94;1618621;88;21063;-64
2021/08/13 04:53:09;;;;;;;14.15;6.20;;;;;;;15.94;100.00;100076.73;1618359;88;21502;-65
2021/08/13 04:55:36;;;;;;;26.55;6.72;;;;;;;16.17;100.00;100078.53;1618393;88;20881;-64
2021/08/13 04:58:03;;;;;;;21.07;6.62;;;;;;;16.18;100.00;100076.11;1618520;88;20965;-64
2021/08/13 05:00:29;;;;;;;11.10;5.08;;;;;;;16.30;100.00;100079.30;1618446;88;21040;-62
2021/08/13 05:03:07;;;;;;;11.37;5.57;;;;;;;16.39;100.00;100079.50;1618495;88;21394;-63
2021/08/13 05:05:36;;;;;;;14.78;5.95;;;;;;;16.52;100.00;100076.74;1618264;88;21146;-63
2021/08/13 05:08:05;;;;;;;10.50;5.20;;;;;;;16.76;100.00;100078.22;1618372;88;20929;-64
2021/08/13 05:10:32;;;;;;;10.75;5.15;;;;;;;16.91;100.00;100079.48;1618204;88;21401;-64
2021/08/13 05:12:59;;;;;;;16.10;5.12;;;;;;;17.11;100.00;100088.80;1618529;88;20996;-64
2021/08/13 05:15:27;;;;;;;12.47;5.55;;;;;;;17.24;100.00;100091.95;1618612;88;20892;-64
2021/08/13 05:17:53;;;;;;;11.88;4.65;;;;;;;17.52;100.00;100088.99;1618452;88;21134;-65
2021/08/13 05:20:24;;;;;;;13.95;4.90;;;;;;;17.62;100.00;100100.30;1618282;88;20964;-64
2021/08/13 05:22:52;;;;;;;8.38;4.67;;;;;;;17.75;100.00;100101.77;1617830;88;20928;-62
2021/08/13 05:25:18;;;;;;;11.80;5.97;;;;;;;18.02;100.00;100104.48;1618694;88;21427;-63
2021/08/13 05:27:46;;;;;;;8.38;4.40;;;;;;;18.17;100.00;100100.22;1618534;88;20929;-65
2021/08/13 05:30:16;;;;;;;10.58;5.08;;;;;;;18.39;100.00;100109.17;1618535;88;21144;-64
2021/08/13 05:32:49;;;;;;;8.08;4.75;;;;;;;18.60;100.00;100114.35;1618227;88;20973;-63
2021/08/13 05:35:15;;;;;;;7.62;4.80;;;;;;;18.59;100.00;100113.55;1597085;88;20952;-64
2021/08/13 05:37:44;;;;;;;14.80;5.58;;;;;;;18.73;100.00;100112.80;1627470;86;21385;-63
2021/08/13 05:40:13;;;;;;;13.70;4.87;;;;;;;18.98;100.00;100117.88;1654753;85;20927;-64
2021/08/13 05:42:39;;;;;;;;;;;;;;;19.20;100.00;100111.81;1656843;85;21147;-65
2021/08/13 05:45:08;;;;;;;11.93;5.03;;;;;;;19.45;100.00;100120.64;1654599;86;20094;-65
2021/08/13 05:47:38;;;;;;;11.50;5.08;;;;;;;19.55;100.00;100118.30;1655572;85;20972;-64
2021/08/13 05:50:07;;;;;;;16.52;5.47;;;;;;;19.80;100.00;100123.32;1689976;83;21023;-65
2021/08/13 05:52:33;;;;;;;10.15;5.25;;;;;;;20.11;100.00;100124.91;1689862;85;20876;-64
2021/08/13 05:55:03;;;;;;;7.95;5.10;;;;;;;20.49;100.00;100119.75;1688919;83;21125;-64
2021/08/13 05:57:30;;;;;;;6.33;4.50;;;;;;;20.58;100.00;100128.86;1667861;85;21029;-65
2021/08/13 05:59:57;;;;;;;16.40;5.47;;;;;;;20.64;100.00;100128.98;1666525;84;20951;-64
2021/08/13 06:02:24;;;;;;;11.37;5.30;;;;;;;20.91;100.00;100132.75;1677157;85;20997;-64
2021/08/13 06:04:51;;;;;;;17.77;8.00;;;;;;;21.26;100.00;100129.70;1677603;85;20930;-65
2021/08/13 06:07:38;;;;;;;14.87;5.27;;;;;;;21.50;100.00;100129.97;1677032;85;21152;-65
2021/08/13 06:10:07;;;;;;;11.85;5.08;;;;;;;21.81;100.00;100129.97;1691972;84;20924;-65
2021/08/13 06:12:35;;;;;;;11.75;5.25;;;;;;;21.53;100.00;100132.87;1683427;84;20920;-65
2021/08/13 06:15:04;;;;;;;10.63;4.92;;;;;;;21.33;100.00;100138.83;1681486;84;20958;-65
2021/08/13 06:17:31;;;;;;;12.50;5.10;;;;;;;21.53;100.00;100138.33;1695096;83;21025;-64
2021/08/13 06:19:58;;;;;;;8.40;4.83;;;;;;;21.86;99.10;100138.59;1704550;81;21121;-65
2021/08/13 06:22:26;;;;;;;7.15;4.70;;;;;;;21.95;96.96;100139.41;1699042;82;21035;-65
2021/08/13 06:24:52;;;;;;;12.45;4.97;;;;;;;21.78;96.55;100140.97;1724451;82;20971;-64
2021/08/13 06:27:21;;;;;;;;;;;;;;;21.84;96.40;100140.27;1709997;84;20998;-65
2021/08/13 06:29:48;;;;;;;5.65;4.20;;;;;;;21.77;93.99;100142.64;1699611;84;20150;-65
2021/08/13 06:32:19;;;;;;;13.30;5.45;;;;;;;21.69;94.37;100140.69;1696211;84;21687;-65
2021/08/13 06:34:46;;;;;;;6.33;4.78;;;;;;;21.91;93.95;100146.66;1677589;85;21060;-65
2021/08/13 06:37:13;;;;;;;12.75;5.03;;;;;;;22.05;92.98;100148.16;1658139;86;21077;-65
2021/08/13 06:39:40;;;;;;;20.65;5.17;;;;;;;22.31;91.93;100150.75;1728460;81;21014;-65
2021/08/13 06:42:08;;;;;;;5.20;4.17;;;;;;;22.74;87.49;100147.30;1728734;83;20992;-65
2021/08/13 06:44:37;;;;;;;15.93;4.30;;;;;;;22.81;89.32;100141.59;1724393;81;21754;-66
2021/08/13 06:47:04;;;;;;;10.70;5.10;;;;;;;22.82;86.07;100147.86;1726404;80;20952;-65
2021/08/13 06:49:31;;;;;;;7.25;4.20;;;;;;;22.89;84.21;100153.09;1757196;81;20907;-63
2021/08/13 06:51:57;;;;;;;8.38;5.15;;;;;;;23.18;83.21;100148.13;1706344;83;20976;-61
2021/08/13 06:54:25;;;;;;;5.15;3.87;;;;;;;23.12;83.26;100154.32;1758781;81;20931;-61
2021/08/13 06:56:52;;;;;;;17.67;4.60;;;;;;;23.00;79.14;100148.69;1758926;80;21139;-62
2021/08/13 06:59:18;;;;;;;7.60;4.60;;;;;;;23.16;81.47;100144.91;1739825;80;20972;-63
2021/08/13 07:01:46;;;;;;;8.20;4.30;;;;;;;23.08;80.15;100147.33;1718735;82;20909;-61
2021/08/13 07:04:13;;;;;;;6.72;4.45;;;;;;;22.92;80.00;100153.01;1733955;81;20917;-62
2021/08/13 07:06:40;;;;;;;11.03;4.17;;;;;;;23.22;79.00;100159.46;1735376;81;20916;-60
2021/08/13 07:09:07;;;;;;;13.93;5.30;;;;;;;23.39;74.35;100158.63;1721669;81;21001;-59
2021/08/13 07:11:33;;;;;;;7.65;4.25;;;;;;;23.39;77.43;100160.57;1727539;82;20921;-60
2021/08/13 07:14:01;;;;;;;7.85;4.30;;;;;;;23.49;74.05;100158.86;1731797;81;20988;-59
2021/08/13 07:16:30;;;;;;;9.58;3.98;;;;;;;23.59;72.50;100157.70;1736560;81;20987;-62
2021/08/13 07:18:57;;;;;;;11.33;4.33;;;;;;;23.22;73.84;100153.19;1733913;81;20987;-63
2021/08/13 07:21:25;;;;;;;8.33;4.40;;;;;;;22.93;75.89;100157.91;1733081;81;21124;-63
2021/08/13 07:23:54;;;;;;;5.50;4.10;;;;;;;23.10;76.78;100153.83;1699838;84;21391;-62
2021/08/13 07:26:20;;;;;;;9.93;4.40;;;;;;;23.51;74.01;100156.60;1699894;84;20897;-62
2021/08/13 07:28:47;;;;;;;8.35;3.77;;;;;;;23.54;72.32;100153.20;1725223;82;21030;-64
2021/08/13 07:31:14;;;;;;;7.80;4.28;;;;;;;23.52;71.80;100159.59;1728308;83;20824;-62
2021/08/13 07:33:43;;;;;;;34.27;5.20;;;;;;;23.56;73.57;100149.58;1728233;83;21102;-62
2021/08/13 07:36:09;;;;;;;9.63;4.37;;;;;;;24.05;71.75;100157.50;1728274;83;20951;-64
2021/08/13 07:38:40;;;;;;;9.03;3.80;;;;;;;24.06;70.40;100148.16;1728201;83;21444;-63
2021/08/13 07:41:08;;;;;;;8.20;3.90;;;;;;;24.26;69.38;100160.31;1722019;82;21378;-65
2021/08/13 07:43:37;;;;;;;7.80;4.20;;;;;;;23.74;68.81;100159.41;1719594;83;20970;-63
2021/08/13 07:46:04;;;;;;;29.82;5.15;;;;;;;23.41;70.66;100159.69;1728939;83;21083;-61
2021/08/13 07:48:31;;;;;;;7.62;3.98;;;;;;;23.64;71.26;100169.32;1698307;83;20967;-63
2021/08/13 07:50:57;;;;;;;8.90;3.95;;;;;;;24.06;68.10;100161.30;1728963;83;20978;-63
2021/08/13 07:53:24;;;;;;;5.87;3.90;;;;;;;24.47;66.38;100172.14;1727722;81;21067;-62
2021/08/13 07:55:52;;;;;;;9.20;4.05;;;;;;;24.89;63.14;100171.38;1722015;81;21011;-63
2021/08/13 07:58:19;;;;;;;9.13;3.93;;;;;;;25.00;61.21;100170.65;1723805;83;21130;-63
2021/08/13 08:00:46;;;;;;;7.27;3.40;;;;;;;24.92;61.64;100156.42;1721909;83;20975;-64
2021/08/13 08:03:13;;;;;;;5.80;3.67;;;;;;;24.98;59.70;100155.07;1721286;83;21625;-65
2021/08/13 08:05:40;;;;;;;6.80;4.00;;;;;;;25.02;62.08;100165.63;1719892;83;21450;-63
2021/08/13 08:08:07;;;;;;;4.50;3.42;;;;;;;24.81;59.86;100166.98;1719995;83;20904;-64
2021/08/13 08:10:33;;;;;;;6.15;3.60;;;;;;;25.00;60.24;100164.36;1723165;83;21043;-64
2021/08/13 08:12:59;;;;;;;7.67;4.00;;;;;;;25.06;58.60;100162.20;1717144;83;20944;-63
2021/08/13 08:15:26;;;;;;;4.80;3.20;;;;;;;24.63;60.44;100169.64;1727274;82;20944;-64
2021/08/13 08:17:52;;;;;;;9.45;3.92;;;;;;;24.71;60.90;100156.41;1716207;83;20992;-63
2021/08/13 08:20:18;;;;;;;5.05;3.47;;;;;;;24.91;61.33;100162.25;1712826;83;21414;-62
2021/08/13 08:22:45;;;;;;;9.87;3.50;;;;;;;25.24;59.52;100160.38;1713049;83;21114;-62
2021/08/13 08:25:12;;;;;;;7.03;4.08;;;;;;;25.15;59.22;100165.69;1712755;83;20986;-63
2021/08/13 08:27:38;;;;;;;7.75;3.90;;;;;;;24.96;56.47;100164.78;1712598;83;21453;-62
2021/08/13 08:30:07;;;;;;;6.17;3.55;;;;;;;25.08;57.26;100163.47;1684884;83;21030;-62
2021/08/13 08:32:33;;;;;;;39.55;5.87;;;;;;;25.00;55.56;100165.16;1720304;81;20988;-61
2021/08/13 08:34:59;;;;;;;6.17;3.75;;;;;;;24.98;57.91;100163.89;1728103;83;21113;-62
2021/08/13 08:37:26;;;;;;;8.33;3.55;;;;;;;25.17;55.76;100162.06;1729046;83;21419;-62
2021/08/13 08:39:52;;;;;;;5.03;3.72;;;;;;;24.70;56.10;100167.75;1720944;83;21466;-62
2021/08/13 08:42:19;;;;;;;8.30;3.98;;;;;;;24.31;55.59;100162.30;1719015;83;21435;-61
2021/08/13 08:44:46;;;;;;;5.85;3.52;;;;;;;24.55;56.53;100166.39;1720087;81;21008;-61
2021/08/13 08:47:12;;;;;;;7.20;3.37;;;;;;;24.49;57.13;100159.48;1732873;81;22213;-61
2021/08/13 08:49:40;;;;;;;5.37;3.77;;;;;;;24.48;55.71;100146.33;1725465;81;21461;-63
2021/08/13 08:52:07;;;;;;;5.62;3.85;;;;;;;24.71;53.81;100160.53;1725361;81;21000;-62
2021/08/13 08:54:41;;;;;;;6.62;3.80;;;;;;;24.97;54.44;100162.29;1722725;83;21010;-65
2021/08/13 08:57:09;;;;;;;5.97;3.60;;;;;;;25.36;55.92;100158.25;1720757;81;21109;-62
2021/08/13 08:59:36;;;;;;;7.28;4.08;;;;;;;25.88;53.67;100163.77;1720529;83;21486;-62
2021/08/13 09:02:03;;;;;;;4.85;3.25;;;;;;;25.99;52.08;100148.44;1714040;83;20971;-62
2021/08/13 09:04:33;;;;;;;3.98;2.83;;;;;;;25.94;53.25;100155.52;1718127;83;20960;-63
2021/08/13 09:07:00;;;;;;;5.28;3.40;;;;;;;25.97;51.67;100163.65;1725330;82;21294;-62
2021/08/13 09:09:28;;;;;;;4.42;2.90;;;;;;;26.08;50.93;100170.31;1726259;83;21441;-62
2021/08/13 09:11:56;;;;;;;4.25;3.02;;;;;;;25.61;51.20;100165.98;1725932;83;21115;-62
2021/08/13 09:14:23;;;;;;;5.25;3.27;;;;;;;25.21;50.55;100158.89;1722397;83;21426;-63
2021/08/13 09:17:03;;;;;;;8.80;3.40;;;;;;;25.64;51.70;100163.13;1669865;83;21023;-63
2021/08/13 09:19:45;;;;;;;4.65;3.02;;;;;;;25.88;52.23;100176.95;1722010;83;20975;-64
2021/08/13 09:22:16;;;;;;;7.05;3.83;;;;;;;26.28;48.53;100169.39;1722685;83;20964;-65
2021/08/13 09:24:45;;;;;;;3.83;3.08;;;;;;;26.03;50.32;100171.92;1692630;83;21669;-64
2021/08/13 09:27:24;;;;;;;6.42;4.00;;;;;;;26.42;49.35;100164.12;1721613;83;20963;-64
2021/08/13 09:30:17;;;;;;;5.22;2.95;;;;;;;26.61;49.59;100175.95;1717739;83;21058;-66
2021/08/13 09:33:05;;;;;;;10.68;3.55;;;;;;;26.29;49.05;100165.52;1730291;81;20933;-65
2021/08/13 09:35:39;;;;;;;4.70;2.52;;;;;;;25.88;50.87;100161.81;1748546;82;21430;-65
2021/08/13 09:38:11;;;;;;;4.15;3.08;;;;;;;26.47;50.85;100165.27;1729621;82;21696;-65
2021/08/13 09:40:43;;;;;;;7.33;2.90;;;;;;;25.96;48.32;100179.94;1730058;81;21019;-65
2021/08/13 09:43:10;;;;;;;4.15;3.12;;;;;;;25.21;49.41;100174.79;1743656;81;21049;-65
2021/08/13 09:45:36;;;;;;;5.03;3.17;;;;;;;25.40;50.25;100168.77;1719116;83;20898;-66
2021/08/13 09:48:05;;;;;;;5.25;3.27;;;;;;;25.52;51.03;100169.96;1718995;83;21064;-66
2021/08/13 09:50:40;;;;;;;7.40;3.05;;;;;;;25.26;50.91;100173.78;1719049;83;21694;-66
2021/08/13 09:53:13;;;;;;;5.80;3.72;;;;;;;24.81;51.09;100170.31;1718948;83;20965;-66
2021/08/13 09:55:41;;;;;;;4.45;2.80;;;;;;;24.82;52.04;100167.82;1718884;82;20977;-65
2021/08/13 09:58:09;;;;;;;6.22;3.22;;;;;;;24.88;50.79;100166.47;1719210;83;21510;-65
2021/08/13 10:00:47;;;;;;;6.65;2.58;;;;;;;25.20;53.53;100162.76;1718827;82;20869;-65
2021/08/13 10:03:15;;;;;;;4.15;2.85;;;;;;;26.15;47.73;100165.05;1719024;83;22281;-65
2021/08/13 10:05:42;;;;;;;3.90;3.27;;;;;;;26.29;48.52;100163.34;1718770;83;20926;-66
2021/08/13 10:08:10;;;;;;;4.70;3.30;;;;;;;26.18;46.69;100161.60;1718952;83;21383;-66
2021/08/13 10:10:42;;;;;;;7.10;3.37;;;;;;;25.42;49.47;100165.70;1718895;83;20965;-65
2021/08/13 10:13:11;;;;;;;4.40;2.67;;;;;;;25.27;51.29;100171.83;1719198;81;21035;-64
2021/08/13 10:15:44;;;;;;;6.60;3.87;;;;;;;25.93;47.31;100161.38;1691626;82;21503;-64
2021/08/13 10:18:15;;;;;;;4.80;3.42;;;;;;;26.40;47.50;100169.17;1718813;83;20929;-65
2021/08/13 10:20:51;;;;;;;4.35;3.12;;;;;;;26.69;47.10;100168.92;1718862;83;20967;-64
2021/08/13 10:23:19;;;;;;;4.37;3.40;;;;;;;26.99;46.57;100161.72;1719146;82;20974;-64
2021/08/13 10:25:48;;;;;;;4.40;3.50;;;;;;;26.88;45.44;100165.55;1718784;83;21032;-65
2021/08/13 10:28:16;;;;;;;5.87;3.60;;;;;;;26.09;48.17;100165.03;1719098;83;21112;-64
2021/08/13 10:30:45;;;;;;;9.70;3.35;;;;;;;25.39;48.82;100162.27;1718576;82;20940;-64
2021/08/13 10:33:13;;;;;;;6.17;2.83;;;;;;;24.88;52.06;100170.58;1720171;82;20990;-64
2021/08/13 10:35:52;;;;;;;4.33;2.95;;;;;;;24.91;50.75;100164.41;1728232;81;20903;-65
2021/08/13 10:38:29;;;;;;;4.33;3.05;;;;;;;25.45;49.75;100152.64;1728301;82;20871;-62
2021/08/13 10:40:56;;;;;;;6.30;3.05;;;;;;;25.78;49.31;100153.98;1721331;81;22199;-64
2021/08/13 10:43:33;;;;;;;4.45;3.22;;;;;;;25.72;48.35;100162.21;1718508;83;20925;-64
2021/08/13 10:46:02;;;;;;;6.53;3.47;;;;;;;25.24;48.96;100160.95;1726042;82;20917;-64
2021/08/13 10:48:30;;;;;;;7.97;3.33;;;;;;;25.17;49.49;100154.63;1726485;83;20989;-64
2021/08/13 10:51:00;;;;;;;9.20;3.80;;;;;;;25.59;49.30;100159.22;1724275;83;20973;-64
2021/08/13 10:53:37;;;;;;;6.62;3.08;;;;;;;26.27;47.26;100154.63;1719047;83;21118;-61
2021/08/13 10:56:40;;;;;;;3.98;2.75;;;;;;;26.30;43.92;100154.72;1678406;85;21014;-65
2021/08/13 10:59:09;;;;;;;4.65;3.10;;;;;;;26.81;42.58;100155.70;1657010;85;21388;-63
2021/08/13 11:02:12;;;;;;;4.67;2.80;;;;;;;26.67;42.33;100162.16;1656373;86;20989;-64
2021/08/13 11:04:42;;;;;;;5.70;3.27;;;;;;;26.92;42.90;100167.84;1597472;88;21061;-64
2021/08/13 11:07:10;;;;;;;7.97;3.12;;;;;;;26.57;44.20;100166.19;1582225;90;21136;-63
2021/08/13 11:09:39;;;;;;;13.55;3.95;;;;;;;26.33;46.26;100157.93;1582017;89;21078;-62
2021/08/13 11:12:15;;;;;;;5.65;2.60;;;;;;;26.79;42.89;100153.87;1583030;90;20988;-63
2021/08/13 11:14:52;;;;;;;7.33;2.90;;;;;;;27.30;42.83;100154.75;1582229;88;21477;-63
2021/08/13 11:17:44;;;;;;;6.05;3.80;;;;;;;27.38;40.94;100162.63;1592313;88;21037;-62
2021/08/13 11:20:14;;;;;;;8.50;3.50;;;;;;;27.58;41.41;100158.84;1611995;87;21001;-61
2021/08/13 11:22:43;;;;;;;5.03;3.20;;;;;;;27.79;42.22;100155.25;1641021;85;21018;-62
2021/08/13 11:25:12;;;;;;;6.75;2.85;;;;;;;27.99;41.02;100157.55;1641120;87;21007;-62
2021/08/13 11:27:39;;;;;;;7.58;3.42;;;;;;;28.09;40.26;100147.93;1624456;86;21012;-63
2021/08/13 11:30:26;;;;;;;;;;;;;;;27.93;42.13;100156.23;1643867;86;21474;-63